KEBG

Details ICAO KEBG
Name EDINBURG INTL
Region United States
Timezone America/Chicago (UTC-5.0)
Plans Departing 17
Arriving 29
Stats Elevation 75 ft / 23 m (AMSL)
Location 26.442017° -98.127635°
Runways 2
Magnetic Variation 4.021° E
Sunrise 2018-05-27 11:42:16 UTC / 2018-05-27 06:42:16 Local
Sunset 2018-05-28 01:20:00 UTC / 2018-05-27 20:20:00 Local
Advertisement - Login to hide

Runways

ID Width Length Bearing (true) Bearing (mag) Surface Threshold Offset Overrun Length
13 150 ft / 46 m 3,117 ft / 950 m 144.39° 140.37° Asphalt 0 ft / 0 m 0 ft / 0 m
14 75 ft / 23 m 5,010 ft / 1,527 m 144.02° 140.00° Asphalt 0 ft / 0 m 0 ft / 0 m
31 150 ft / 46 m 3,117 ft / 950 m 324.39° 320.37° Asphalt 0 ft / 0 m 1,800 ft / 549 m
32 75 ft / 23 m 5,010 ft / 1,527 m 324.03° 320.01° Asphalt 0 ft / 0 m 0 ft / 0 m

Map

Weather


0- 5 10 15 20 25 30 35+ Temperature / ° C

Clouds and Precipitation
Forecast for 2018-05-27 18:00 UTC. Updated an hour ago

Ground ~20,000 ft ~40,000 ft Winds

METAR

KEBG 271815Z AUTO 11006KT 10SM CLR 36/16 A2979 RMK AO2 T03570164

TAF

Not found

Frequencies

Recorded 118.02 MHz AWOS 3
Approach 121.00 MHz CORPUS APP DEP
Unicom 122.80 MHz CTAF/UNICOM
Warning: Do not use this data for real-world aviation or navigation. No guarantee of current accuracy is given.